Time;durP1;ratioP1;P1;durP2;ratioP2;P2;SDS_P1;SDS_P2;PMS_P1;PMS_P2;Temp;Humidity;BMP_temperature;BMP_pressure;BME280_temperature;BME280_humidity;BME280_pressure;Samples;Min_cycle;Max_cycle;Signal;HPM_P1;HPM_P2
2021/12/03 00:02:05;;;;;;;18.20;7.83;;;;;;;;;;4983893;28;20433;-92
2021/12/03 00:04:34;;;;;;;16.03;7.37;;;;;;;;;;4976468;28;20473;-90
2021/12/03 00:07:07;;;;;;;20.90;8.37;;;;;;;;;;4980234;28;20456;-91
2021/12/03 00:09:37;;;;;;;20.50;8.20;;;;;;;;;;4986822;28;20512;-91
2021/12/03 00:12:11;;;;;;;17.77;7.93;;;;;;;;;;4977525;28;20532;-91
2021/12/03 00:14:38;;;;;;;18.63;8.43;;;;;;;;;;4993781;28;20475;-91
2021/12/03 00:17:11;;;;;;;18.40;7.27;;;;;;;;;;4991036;28;20455;-91
2021/12/03 00:19:43;;;;;;;17.53;7.93;;;;;;;;;;4989099;28;20460;-91
2021/12/03 00:22:16;;;;;;;18.60;8.30;;;;;;;;;;4987603;28;20460;-91
2021/12/03 00:24:45;;;;;;;18.30;8.43;;;;;;;;;;4982620;28;20481;-91
2021/12/03 00:27:19;;;;;;;18.63;8.00;;;;;;;;;;4986629;28;20948;-91
2021/12/03 00:29:47;;;;;;;19.10;7.87;;;;;;;;;;4983655;28;20291;-90
2021/12/03 00:32:20;;;;;;;17.43;7.60;;;;;;;;;;4987684;28;20492;-92
2021/12/03 00:34:51;;;;;;;16.87;7.50;;;;;;;;;;4992829;28;20892;-92
2021/12/03 00:37:20;;;;;;;13.77;6.83;;;;;;;;;;4979458;28;20494;-91
2021/12/03 00:39:54;;;;;;;16.23;7.23;;;;;;;;;;4987475;28;20486;-91
2021/12/03 00:42:26;;;;;;;16.40;6.87;;;;;;;;;;4982095;28;20437;-92
2021/12/03 00:44:56;;;;;;;19.17;7.90;;;;;;;;;;4982527;28;20591;-91
2021/12/03 00:47:26;;;;;;;16.10;7.33;;;;;;;;;;4989319;28;20448;-92
2021/12/03 00:49:58;;;;;;;16.13;7.43;;;;;;;;;;4978091;28;20468;-91
2021/12/03 00:52:31;;;;;;;16.33;7.27;;;;;;;;;;4983768;28;20484;-90
2021/12/03 00:55:00;;;;;;;15.90;7.20;;;;;;;;;;4978649;28;20481;-91
2021/12/03 00:57:32;;;;;;;14.43;7.13;;;;;;;;;;4978490;28;20881;-88
2021/12/03 01:00:07;;;;;;;14.47;6.83;;;;;;;;;;4988633;28;20468;-88
2021/12/03 01:02:34;;;;;;;16.37;6.67;;;;;;;;;;4996513;28;20459;-87
2021/12/03 01:05:06;;;;;;;20.83;7.40;;;;;;;;;;4989711;28;20486;-88
2021/12/03 01:07:36;;;;;;;20.07;8.33;;;;;;;;;;4986641;28;20473;-88
2021/12/03 01:10:10;;;;;;;18.90;7.93;;;;;;;;;;4987529;28;20461;-87
2021/12/03 01:12:40;;;;;;;18.77;7.47;;;;;;;;;;4986550;28;20480;-87
2021/12/03 01:15:12;;;;;;;16.93;7.63;;;;;;;;;;4986105;28;20494;-87
2021/12/03 01:17:40;;;;;;;19.90;8.07;;;;;;;;;;4986528;28;20468;-87
2021/12/03 01:20:14;;;;;;;19.17;7.63;;;;;;;;;;4993949;28;20455;-87
2021/12/03 01:22:44;;;;;;;16.10;7.37;;;;;;;;;;4989812;28;20547;-88
2021/12/03 01:25:15;;;;;;;20.77;8.40;;;;;;;;;;4994590;28;20628;-88
2021/12/03 01:27:48;;;;;;;21.53;8.33;;;;;;;;;;4988891;28;20518;-88
2021/12/03 01:30:18;;;;;;;17.50;7.77;;;;;;;;;;4993362;28;20463;-88
2021/12/03 01:32:51;;;;;;;19.00;8.20;;;;;;;;;;4987112;28;20479;-88
2021/12/03 01:35:20;;;;;;;17.53;8.33;;;;;;;;;;4992199;28;20563;-88
2021/12/03 01:37:53;;;;;;;17.63;7.87;;;;;;;;;;4994507;28;20991;-87
2021/12/03 01:40:24;;;;;;;15.77;7.50;;;;;;;;;;4988488;28;20507;-88
2021/12/03 01:42:54;;;;;;;19.63;8.47;;;;;;;;;;4995622;28;20562;-88
2021/12/03 01:45:28;;;;;;;18.93;8.20;;;;;;;;;;4988418;28;20475;-88
2021/12/03 01:47:58;;;;;;;20.67;8.17;;;;;;;;;;4985794;28;20472;-87
2021/12/03 01:50:31;;;;;;;21.97;8.90;;;;;;;;;;4986541;28;20456;-88
2021/12/03 01:52:59;;;;;;;17.23;8.03;;;;;;;;;;4991113;28;20491;-87
2021/12/03 01:55:32;;;;;;;17.33;8.13;;;;;;;;;;4986730;28;20471;-88
2021/12/03 01:58:01;;;;;;;28.13;8.57;;;;;;;;;;4988248;28;20479;-89
2021/12/03 02:00:35;;;;;;;20.60;8.90;;;;;;;;;;4983932;28;20433;-88
2021/12/03 02:03:06;;;;;;;21.07;8.83;;;;;;;;;;4982175;28;20445;-86
2021/12/03 02:05:35;;;;;;;22.83;9.33;;;;;;;;;;4982590;28;21018;-88
2021/12/03 02:08:07;;;;;;;18.23;8.33;;;;;;;;;;4992801;28;20459;-88
2021/12/03 02:10:41;;;;;;;21.77;9.00;;;;;;;;;;4985560;28;20519;-87
2021/12/03 02:13:10;;;;;;;19.23;8.50;;;;;;;;;;4982014;28;20536;-87
2021/12/03 02:15:44;;;;;;;21.33;9.30;;;;;;;;;;4985694;28;20492;-86
2021/12/03 02:18:13;;;;;;;20.23;8.93;;;;;;;;;;4984021;28;20535;-88
2021/12/03 02:20:44;;;;;;;23.60;8.87;;;;;;;;;;4991307;28;20448;-89
2021/12/03 02:23:18;;;;;;;23.53;9.53;;;;;;;;;;4988294;28;20283;-87
2021/12/03 02:25:45;;;;;;;20.73;8.27;;;;;;;;;;4986077;28;20440;-91
2021/12/03 02:28:20;;;;;;;22.90;9.93;;;;;;;;;;4993167;28;20209;-88
2021/12/03 02:30:50;;;;;;;26.37;9.27;;;;;;;;;;4982508;28;20457;-88
2021/12/03 02:33:19;;;;;;;18.97;8.63;;;;;;;;;;4978783;28;20221;-88
2021/12/03 02:35:51;;;;;;;21.27;9.00;;;;;;;;;;4985685;28;20224;-89
2021/12/03 02:38:26;;;;;;;20.13;9.13;;;;;;;;;;4981663;28;20209;-88
2021/12/03 02:40:54;;;;;;;19.43;9.23;;;;;;;;;;4986760;28;20581;-87
2021/12/03 02:43:27;;;;;;;20.93;9.03;;;;;;;;;;4988584;28;20215;-89
2021/12/03 02:45:57;;;;;;;23.10;8.97;;;;;;;;;;4981374;28;20489;-91
2021/12/03 02:48:27;;;;;;;27.20;10.10;;;;;;;;;;4985896;28;20573;-89
2021/12/03 02:50:59;;;;;;;23.67;9.77;;;;;;;;;;4990925;28;20460;-88
2021/12/03 02:53:32;;;;;;;20.53;8.83;;;;;;;;;;5000148;28;20667;-87
2021/12/03 02:56:02;;;;;;;22.70;10.00;;;;;;;;;;4986735;28;20491;-87
2021/12/03 02:58:31;;;;;;;26.17;10.07;;;;;;;;;;4980991;28;20218;-87
2021/12/03 03:01:05;;;;;;;24.93;10.40;;;;;;;;;;4988484;28;20200;-87
2021/12/03 03:03:34;;;;;;;25.37;10.20;;;;;;;;;;4993496;28;20260;-87
2021/12/03 03:06:08;;;;;;;22.90;9.87;;;;;;;;;;4987707;28;20221;-90
2021/12/03 03:08:40;;;;;;;23.67;10.23;;;;;;;;;;4980688;28;20201;-90
2021/12/03 03:11:09;;;;;;;25.13;10.80;;;;;;;;;;4982174;28;20460;-89
2021/12/03 03:13:39;;;;;;;28.23;9.80;;;;;;;;;;4982354;28;20657;-90
2021/12/03 03:16:12;;;;;;;23.47;9.93;;;;;;;;;;4983107;28;20244;-90
2021/12/03 03:18:46;;;;;;;23.17;9.50;;;;;;;;;;4987093;28;20209;-90
2021/12/03 03:21:15;;;;;;;22.93;9.37;;;;;;;;;;4982807;28;20244;-90
2021/12/03 03:23:48;;;;;;;24.37;10.47;;;;;;;;;;4982171;28;20201;-89
2021/12/03 03:26:17;;;;;;;25.40;11.60;;;;;;;;;;4982700;28;20534;-89
2021/12/03 03:28:47;;;;;;;26.63;10.73;;;;;;;;;;4987068;28;20472;-89
2021/12/03 03:31:20;;;;;;;26.97;11.00;;;;;;;;;;4988968;28;20205;-91
2021/12/03 03:33:53;;;;;;;23.43;10.37;;;;;;;;;;4980958;28;20221;-91
2021/12/03 03:36:22;;;;;;;24.93;11.33;;;;;;;;;;4983032;28;20693;-91
2021/12/03 03:38:52;;;;;;;23.70;11.63;;;;;;;;;;4982693;28;20287;-89
2021/12/03 03:41:26;;;;;;;29.63;11.10;;;;;;;;;;4978038;28;20201;-87
2021/12/03 03:43:54;;;;;;;28.53;11.17;;;;;;;;;;4980268;28;20595;-89
2021/12/03 03:46:22;;;;;;;25.30;10.50;;;;;;;;;;5014763;22;20291;-86
2021/12/03 03:48:49;;;;;;;24.57;11.20;;;;;;;;;;4993197;28;20207;-83
2021/12/03 03:51:16;;;;;;;22.90;10.33;;;;;;;;;;4995136;28;20212;-83
2021/12/03 03:53:45;;;;;;;24.70;10.47;;;;;;;;;;4998796;28;20686;-85
2021/12/03 03:56:14;;;;;;;24.40;9.67;;;;;;;;;;4987376;28;20247;-83
2021/12/03 03:58:42;;;;;;;24.67;11.43;;;;;;;;;;4984476;28;20549;-86
2021/12/03 04:01:09;;;;;;;21.70;10.30;;;;;;;;;;4981185;28;20209;-87
2021/12/03 04:03:37;;;;;;;22.70;10.83;;;;;;;;;;4983697;28;20212;-83
2021/12/03 04:06:05;;;;;;;28.00;11.00;;;;;;;;;;4983333;28;20842;-84
2021/12/03 04:08:33;;;;;;;23.60;10.93;;;;;;;;;;4984450;28;20748;-83
2021/12/03 04:11:04;;;;;;;24.43;11.33;;;;;;;;;;4983094;28;20614;-84
2021/12/03 04:13:31;;;;;;;23.77;9.87;;;;;;;;;;4981610;28;20231;-84
2021/12/03 04:15:58;;;;;;;25.60;10.43;;;;;;;;;;4981395;28;20339;-84
2021/12/03 04:18:25;;;;;;;24.17;10.80;;;;;;;;;;4982871;28;20208;-83
2021/12/03 04:20:52;;;;;;;29.30;11.50;;;;;;;;;;4983788;28;20336;-84
2021/12/03 04:23:20;;;;;;;26.47;11.53;;;;;;;;;;4981155;28;21187;-84
2021/12/03 04:25:47;;;;;;;31.03;11.27;;;;;;;;;;4982171;28;20221;-82
2021/12/03 04:28:16;;;;;;;27.17;11.57;;;;;;;;;;4982487;28;20219;-84
2021/12/03 04:30:44;;;;;;;24.90;10.47;;;;;;;;;;4981584;28;20224;-83
2021/12/03 04:33:11;;;;;;;28.57;12.23;;;;;;;;;;4983499;28;20205;-84
2021/12/03 04:35:38;;;;;;;27.23;11.43;;;;;;;;;;4988112;28;20227;-85
2021/12/03 04:38:06;;;;;;;28.17;12.03;;;;;;;;;;4988134;28;20204;-86
2021/12/03 04:40:35;;;;;;;23.67;10.53;;;;;;;;;;4988049;28;20300;-84
2021/12/03 04:43:02;;;;;;;22.20;9.60;;;;;;;;;;4985327;28;20205;-86
2021/12/03 04:45:31;;;;;;;23.00;9.13;;;;;;;;;;4984747;28;20251;-83
2021/12/03 04:47:59;;;;;;;23.57;9.67;;;;;;;;;;4986836;28;20679;-86
2021/12/03 04:50:29;;;;;;;22.40;8.13;;;;;;;;;;4986789;28;20211;-83
2021/12/03 04:52:57;;;;;;;23.60;8.10;;;;;;;;;;4985500;28;20300;-86
2021/12/03 04:55:25;;;;;;;23.33;7.87;;;;;;;;;;4987512;28;20685;-85
2021/12/03 04:57:53;;;;;;;20.73;6.00;;;;;;;;;;4986530;28;20377;-85
2021/12/03 05:00:21;;;;;;;12.80;4.50;;;;;;;;;;4985916;28;20209;-85
2021/12/03 05:02:51;;;;;;;11.40;4.90;;;;;;;;;;4984822;28;20201;-84
2021/12/03 05:05:18;;;;;;;15.40;4.73;;;;;;;;;;4983242;28;20236;-83
2021/12/03 05:07:57;;;;;;;11.03;4.93;;;;;;;;;;4981656;28;20229;-84
2021/12/03 05:10:24;;;;;;;10.67;4.33;;;;;;;;;;4982561;28;20205;-85
2021/12/03 05:12:52;;;;;;;11.20;5.20;;;;;;;;;;4987219;28;20268;-85
2021/12/03 05:15:19;;;;;;;15.67;5.70;;;;;;;;;;4986289;28;20231;-85
2021/12/03 05:17:46;;;;;;;10.70;4.90;;;;;;;;;;4981191;28;20209;-84
2021/12/03 05:20:15;;;;;;;11.83;4.73;;;;;;;;;;4984573;28;20573;-85
2021/12/03 05:22:42;;;;;;;12.47;5.07;;;;;;;;;;4983631;28;20300;-86
2021/12/03 05:25:10;;;;;;;12.40;5.50;;;;;;;;;;4988081;28;20313;-86
2021/12/03 05:27:38;;;;;;;11.73;5.10;;;;;;;;;;4984809;28;20856;-84
2021/12/03 05:30:05;;;;;;;15.03;5.60;;;;;;;;;;4979769;28;20198;-85
2021/12/03 05:32:32;;;;;;;10.17;4.77;;;;;;;;;;4985354;28;20209;-84
2021/12/03 05:35:00;;;;;;;10.37;5.20;;;;;;;;;;4987158;28;20255;-84
2021/12/03 05:37:28;;;;;;;10.43;5.03;;;;;;;;;;4987731;28;20284;-83
2021/12/03 05:39:55;;;;;;;11.17;5.17;;;;;;;;;;4985993;28;20305;-84
2021/12/03 05:42:23;;;;;;;14.70;4.80;;;;;;;;;;4986204;28;20215;-84
2021/12/03 05:44:50;;;;;;;14.53;4.80;;;;;;;;;;4987382;28;20320;-84
2021/12/03 05:47:17;;;;;;;11.07;4.93;;;;;;;;;;4986704;28;20301;-83
2021/12/03 05:49:44;;;;;;;12.40;5.47;;;;;;;;;;4983104;28;20669;-85
2021/12/03 05:52:11;;;;;;;12.13;6.20;;;;;;;;;;4984513;28;20212;-84
2021/12/03 05:54:40;;;;;;;12.67;5.70;;;;;;;;;;4986356;28;20221;-84
2021/12/03 05:57:07;;;;;;;12.73;5.87;;;;;;;;;;4985115;28;20219;-85
2021/12/03 05:59:34;;;;;;;13.43;6.20;;;;;;;;;;4987719;28;20206;-85
2021/12/03 06:02:02;;;;;;;15.90;5.77;;;;;;;;;;4989062;28;20206;-83
2021/12/03 06:04:30;;;;;;;12.80;6.03;;;;;;;;;;4983508;28;20648;-84
2021/12/03 06:06:57;;;;;;;12.80;5.93;;;;;;;;;;4982505;28;20305;-85
2021/12/03 06:09:24;;;;;;;16.73;6.20;;;;;;;;;;4985783;28;20239;-85
2021/12/03 06:11:53;;;;;;;10.47;5.20;;;;;;;;;;4990222;28;20528;-85
2021/12/03 06:14:20;;;;;;;12.07;5.37;;;;;;;;;;4984113;28;20289;-85
2021/12/03 06:16:47;;;;;;;15.40;5.63;;;;;;;;;;4986110;28;20771;-85
2021/12/03 06:19:14;;;;;;;12.97;5.43;;;;;;;;;;4991618;28;20209;-84
2021/12/03 06:21:42;;;;;;;11.57;5.70;;;;;;;;;;4987469;28;20661;-84
2021/12/03 06:24:09;;;;;;;15.90;5.83;;;;;;;;;;4990858;28;20285;-84
2021/12/03 06:26:36;;;;;;;17.10;6.23;;;;;;;;;;4987276;28;20233;-85
2021/12/03 06:29:05;;;;;;;13.50;6.43;;;;;;;;;;4985621;28;20219;-85
2021/12/03 06:31:33;;;;;;;14.63;6.07;;;;;;;;;;4986975;28;20304;-85
2021/12/03 06:34:00;;;;;;;14.83;6.33;;;;;;;;;;4983210;28;20241;-85
2021/12/03 06:36:27;;;;;;;14.83;5.77;;;;;;;;;;4984679;28;20316;-85
2021/12/03 06:38:56;;;;;;;14.87;5.93;;;;;;;;;;4985559;28;20268;-83
2021/12/03 06:41:23;;;;;;;15.87;7.40;;;;;;;;;;4984102;28;20209;-85
2021/12/03 06:43:51;;;;;;;21.43;7.20;;;;;;;;;;4988264;28;20744;-85
2021/12/03 06:46:20;;;;;;;22.80;8.43;;;;;;;;;;4985890;28;20244;-84
2021/12/03 06:48:47;;;;;;;18.60;8.50;;;;;;;;;;4988427;28;20312;-84
2021/12/03 06:51:14;;;;;;;24.93;9.00;;;;;;;;;;4995232;28;20211;-84
2021/12/03 06:53:45;;;;;;;21.93;9.80;;;;;;;;;;4990388;28;20233;-84
2021/12/03 06:56:20;;;;;;;22.97;10.03;;;;;;;;;;4987299;28;20241;-85
2021/12/03 06:58:48;;;;;;;25.67;10.80;;;;;;;;;;4991974;28;20547;-84
2021/12/03 07:01:15;;;;;;;17.50;8.63;;;;;;;;;;4987962;28;20229;-85
2021/12/03 07:03:44;;;;;;;21.23;8.27;;;;;;;;;;4985129;28;21029;-82
2021/12/03 07:06:11;;;;;;;15.10;7.60;;;;;;;;;;4989052;28;20559;-83
2021/12/03 07:08:38;;;;;;;24.67;9.73;;;;;;;;;;4990658;28;20471;-85
2021/12/03 07:11:05;;;;;;;17.43;7.80;;;;;;;;;;4983330;28;20207;-84
2021/12/03 07:13:33;;;;;;;22.40;9.10;;;;;;;;;;4987038;28;20471;-85
2021/12/03 07:16:02;;;;;;;24.20;9.97;;;;;;;;;;4987492;28;20256;-84
2021/12/03 07:18:29;;;;;;;29.40;12.03;;;;;;;;;;4984243;28;20244;-84
2021/12/03 07:20:57;;;;;;;37.70;14.93;;;;;;;;;;4986638;28;20289;-84
2021/12/03 07:23:24;;;;;;;40.40;15.60;;;;;;;;;;4983537;28;20634;-84
2021/12/03 07:25:52;;;;;;;37.47;14.13;;;;;;;;;;4990756;28;20219;-84
2021/12/03 07:28:19;;;;;;;35.90;13.00;;;;;;;;;;4985467;28;20532;-84
2021/12/03 07:30:46;;;;;;;29.83;13.43;;;;;;;;;;4985655;28;20206;-84
2021/12/03 07:33:16;;;;;;;34.03;14.90;;;;;;;;;;4982874;28;20256;-84
2021/12/03 07:35:45;;;;;;;38.43;15.50;;;;;;;;;;4988229;28;20653;-83
2021/12/03 07:38:14;;;;;;;38.27;14.63;;;;;;;;;;4991744;28;20209;-81
2021/12/03 07:40:42;;;;;;;37.50;16.73;;;;;;;;;;4987289;28;20216;-84
2021/12/03 07:43:09;;;;;;;54.27;27.67;;;;;;;;;;4982950;28;20688;-82
2021/12/03 07:45:36;;;;;;;41.57;20.03;;;;;;;;;;4982344;28;20297;-83
2021/12/03 07:48:04;;;;;;;30.93;13.47;;;;;;;;;;4983124;28;20270;-84
2021/12/03 07:50:33;;;;;;;27.47;13.20;;;;;;;;;;4982455;28;20201;-84
2021/12/03 07:53:00;;;;;;;30.37;13.63;;;;;;;;;;4984950;28;20197;-83
2021/12/03 07:55:29;;;;;;;28.93;13.83;;;;;;;;;;4983930;28;20294;-84
2021/12/03 07:57:56;;;;;;;28.07;13.20;;;;;;;;;;4982331;28;20211;-84
2021/12/03 08:00:23;;;;;;;37.20;12.77;;;;;;;;;;4993254;28;20343;-84
2021/12/03 08:02:51;;;;;;;25.47;11.63;;;;;;;;;;4986824;28;20219;-84
2021/12/03 08:05:18;;;;;;;29.97;11.50;;;;;;;;;;4976305;28;20221;-83
2021/12/03 08:07:47;;;;;;;25.23;11.13;;;;;;;;;;4967182;28;20200;-84
2021/12/03 08:10:15;;;;;;;23.73;11.13;;;;;;;;;;4975334;28;20216;-83
2021/12/03 08:12:44;;;;;;;28.00;12.53;;;;;;;;;;4978823;28;20345;-83
2021/12/03 08:15:12;;;;;;;26.20;11.63;;;;;;;;;;4977441;28;20237;-83
2021/12/03 08:17:40;;;;;;;27.10;12.00;;;;;;;;;;4977363;28;20216;-85
2021/12/03 08:20:08;;;;;;;28.17;12.30;;;;;;;;;;4976256;28;20275;-83
2021/12/03 08:22:35;;;;;;;28.30;10.70;;;;;;;;;;4975072;28;20672;-84
2021/12/03 08:25:03;;;;;;;18.43;7.50;;;;;;;;;;4985587;28;20315;-84
2021/12/03 08:27:30;;;;;;;21.83;9.60;;;;;;;;;;4979415;28;20224;-83
2021/12/03 08:29:58;;;;;;;19.20;7.73;;;;;;;;;;4981694;28;20220;-84
2021/12/03 08:32:26;;;;;;;21.53;7.73;;;;;;;;;;4972631;28;20293;-84
2021/12/03 08:34:53;;;;;;;22.70;8.83;;;;;;;;;;4976147;28;20289;-84
2021/12/03 08:37:20;;;;;;;17.43;7.50;;;;;;;;;;4981748;28;20201;-83
2021/12/03 08:39:47;;;;;;;18.60;7.17;;;;;;;;;;4985787;28;20304;-83
2021/12/03 08:42:15;;;;;;;23.93;9.20;;;;;;;;;;4981034;28;20223;-84
2021/12/03 08:44:42;;;;;;;20.67;7.17;;;;;;;;;;4985051;28;20316;-84
2021/12/03 08:47:11;;;;;;;19.37;7.67;;;;;;;;;;4984975;28;20300;-83
2021/12/03 08:49:44;;;;;;;15.60;6.60;;;;;;;;;;4987672;28;20564;-85
2021/12/03 08:52:28;;;;;;;18.97;6.77;;;;;;;;;;4982933;28;20202;-85
2021/12/03 08:54:55;;;;;;;15.17;6.23;;;;;;;;;;4983091;28;20228;-85
2021/12/03 08:57:24;;;;;;;13.53;5.67;;;;;;;;;;4982313;28;20197;-85
2021/12/03 08:59:52;;;;;;;16.47;5.90;;;;;;;;;;4992404;28;20205;-84
2021/12/03 09:02:21;;;;;;;14.80;5.87;;;;;;;;;;4982190;28;20241;-83
2021/12/03 09:04:48;;;;;;;15.27;6.63;;;;;;;;;;4981282;28;20293;-84
2021/12/03 09:07:16;;;;;;;9.23;4.90;;;;;;;;;;4981194;28;20213;-84
2021/12/03 09:09:43;;;;;;;17.53;5.07;;;;;;;;;;4984482;28;20216;-85
2021/12/03 09:12:13;;;;;;;11.03;4.90;;;;;;;;;;4986574;28;20273;-85
2021/12/03 09:14:42;;;;;;;14.00;5.47;;;;;;;;;;4984847;28;20551;-84
2021/12/03 09:17:30;;;;;;;12.63;5.13;;;;;;;;;;4983273;28;20278;-84
2021/12/03 09:20:05;;;;;;;13.27;5.40;;;;;;;;;;4981893;28;20648;-84
2021/12/03 09:22:38;;;;;;;18.20;9.23;;;;;;;;;;4987056;28;20211;-84
2021/12/03 09:25:06;;;;;;;18.20;7.77;;;;;;;;;;4987580;28;20229;-84
2021/12/03 09:27:33;;;;;;;10.23;4.60;;;;;;;;;;4983963;28;20232;-84
2021/12/03 09:30:02;;;;;;;9.83;4.33;;;;;;;;;;4991871;28;20669;-84
2021/12/03 09:32:31;;;;;;;17.27;3.87;;;;;;;;;;4988093;28;20209;-84
2021/12/03 09:35:00;;;;;;;19.17;5.03;;;;;;;;;;4987597;28;20237;-85
2021/12/03 09:37:27;;;;;;;9.47;3.90;;;;;;;;;;4990019;28;20255;-83
2021/12/03 09:39:55;;;;;;;7.30;3.23;;;;;;;;;;4986210;28;20677;-84
2021/12/03 09:42:23;;;;;;;11.10;3.53;;;;;;;;;;4986203;28;20582;-84
2021/12/03 09:44:51;;;;;;;11.43;3.70;;;;;;;;;;4980687;28;20201;-84
2021/12/03 09:47:19;;;;;;;8.40;2.90;;;;;;;;;;5018710;23;20315;-87
2021/12/03 09:49:53;;;;;;;10.87;5.33;;;;;;;;;;5004892;28;20217;-88
2021/12/03 09:52:27;;;;;;;13.10;3.27;;;;;;;;;;4997460;28;20205;-88
2021/12/03 09:55:13;;;;;;;18.60;4.10;;;;;;;;;;5012016;28;20211;-88
2021/12/03 09:57:45;;;;;;;19.10;8.53;;;;;;;;;;5001229;28;20270;-88
2021/12/03 10:00:21;;;;;;;8.93;2.97;;;;;;;;;;5008871;28;20679;-88
2021/12/03 10:03:18;;;;;;;13.47;5.97;;;;;;;;;;5007053;28;20200;-89
2021/12/03 10:34:10;;;;;;;15.83;4.20;;;;;;;;;;5004487;28;20227;-87
2021/12/03 10:39:32;;;;;;;12.13;3.63;;;;;;;;;;5004329;28;20196;-87
2021/12/03 10:42:09;;;;;;;12.97;3.93;;;;;;;;;;5006165;28;20219;-87
2021/12/03 10:44:52;;;;;;;11.80;3.03;;;;;;;;;;5001867;28;20211;-87
2021/12/03 10:47:32;;;;;;;7.17;2.43;;;;;;;;;;5006353;28;20332;-87
2021/12/03 10:50:23;;;;;;;8.37;2.50;;;;;;;;;;5006655;28;20204;-88
2021/12/03 10:52:57;;;;;;;8.93;2.57;;;;;;;;;;5006334;28;20280;-87
2021/12/03 10:58:35;;;;;;;7.50;3.20;;;;;;;;;;5007654;28;20227;-88
2021/12/03 11:06:55;;;;;;;8.97;2.67;;;;;;;;;;5004024;28;20707;-88
2021/12/03 11:30:05;;;;;;;6.77;2.30;;;;;;;;;;5002500;28;20212;-87
2021/12/03 14:42:46;;;;;;;13.57;4.70;;;;;;;;;;4926771;29;20203;-80
2021/12/03 14:45:31;;;;;;;8.87;4.10;;;;;;;;;;4926059;29;20625;-81
2021/12/03 14:53:44;;;;;;;10.73;3.27;;;;;;;;;;4913235;29;20641;-81
2021/12/03 14:56:15;;;;;;;12.50;4.60;;;;;;;;;;4924727;29;20291;-79
2021/12/03 14:58:49;;;;;;;7.90;2.80;;;;;;;;;;4928821;29;20235;-80
2021/12/03 15:01:25;;;;;;;5.37;2.83;;;;;;;;;;4926706;29;20650;-80
2021/12/03 15:06:42;;;;;;;6.57;2.80;;;;;;;;;;4905654;29;20343;-79
2021/12/03 15:09:13;;;;;;;9.90;3.67;;;;;;;;;;4926334;29;20641;-80
2021/12/03 15:26:08;;;;;;;12.23;5.63;;;;;;;;;;4931376;29;20278;-81
2021/12/03 15:29:04;;;;;;;16.77;8.70;;;;;;;;;;4927542;29;20666;-81
2021/12/03 15:34:28;;;;;;;6.60;2.93;;;;;;;;;;4928446;29;20290;-80
2021/12/03 15:37:14;;;;;;;6.97;3.43;;;;;;;;;;4929731;29;20278;-80
2021/12/03 15:40:00;;;;;;;11.10;3.10;;;;;;;;;;4937521;29;20203;-78
2021/12/03 15:56:35;;;;;;;4.80;2.57;;;;;;;;;;4923168;29;20494;-81
2021/12/03 16:04:35;;;;;;;18.33;8.73;;;;;;;;;;4929448;29;20445;-81
2021/12/03 16:07:14;;;;;;;16.77;5.90;;;;;;;;;;4919800;29;20519;-80
2021/12/03 16:09:56;;;;;;;6.27;2.40;;;;;;;;;;4931508;29;20274;-81
2021/12/03 16:12:33;;;;;;;6.83;2.43;;;;;;;;;;4916956;29;20218;-79
2021/12/03 16:15:17;;;;;;;9.87;4.03;;;;;;;;;;4921477;28;20214;-82
2021/12/03 16:20:56;;;;;;;8.57;2.70;;;;;;;;;;4911981;29;20740;-79
2021/12/03 16:26:47;;;;;;;7.37;2.40;;;;;;;;;;4862200;29;20212;-81
2021/12/03 16:54:08;;;;;;;11.17;5.20;;;;;;;;;;4924065;29;20239;-78
2021/12/03 16:56:37;;;;;;;5.23;2.83;;;;;;;;;;4926373;29;20226;-79
2021/12/03 16:59:04;;;;;;;7.87;2.40;;;;;;;;;;4932130;29;20230;-80
2021/12/03 17:01:37;;;;;;;5.60;2.67;;;;;;;;;;4928358;29;20257;-81
2021/12/03 17:04:10;;;;;;;7.30;3.37;;;;;;;;;;4929653;29;20303;-81
2021/12/03 17:12:29;;;;;;;6.87;2.83;;;;;;;;;;4904582;29;20230;-81
2021/12/03 17:15:11;;;;;;;8.87;2.90;;;;;;;;;;4928355;29;20580;-82
2021/12/03 17:48:42;;;;;;;10.77;3.63;;;;;;;;;;4922696;29;21573;-81
2021/12/03 17:54:02;;;;;;;10.40;4.07;;;;;;;;;;4914424;29;20247;-81
2021/12/03 17:56:31;;;;;;;6.70;3.77;;;;;;;;;;4928937;29;22156;-81
2021/12/03 17:59:04;;;;;;;5.77;3.40;;;;;;;;;;4925699;29;20269;-81
2021/12/03 18:01:37;;;;;;;9.17;3.70;;;;;;;;;;4919267;29;20253;-81
2021/12/03 18:04:08;;;;;;;6.80;3.93;;;;;;;;;;4912166;29;20200;-80
2021/12/03 18:09:44;;;;;;;9.57;3.80;;;;;;;;;;4922753;29;20203;-81
2021/12/03 18:56:29;;;;;;;15.17;6.60;;;;;;;;;;4926645;29;20207;-81
2021/12/03 18:58:58;;;;;;;15.60;7.00;;;;;;;;;;4927824;29;20238;-81
2021/12/03 19:01:29;;;;;;;12.90;6.03;;;;;;;;;;4923591;29;20673;-82
2021/12/03 19:04:09;;;;;;;14.60;7.30;;;;;;;;;;4920198;29;20207;-82
2021/12/03 19:06:41;;;;;;;17.63;7.10;;;;;;;;;;4928212;29;20562;-81
2021/12/03 19:09:11;;;;;;;17.83;7.73;;;;;;;;;;4927506;29;20219;-81
2021/12/03 19:11:41;;;;;;;23.00;9.70;;;;;;;;;;4920638;29;20222;-82
2021/12/03 19:14:09;;;;;;;15.03;6.73;;;;;;;;;;4932636;29;20210;-82
2021/12/03 19:16:36;;;;;;;18.57;6.90;;;;;;;;;;4930973;29;20218;-81
2021/12/03 19:19:04;;;;;;;12.60;6.27;;;;;;;;;;4926637;29;20255;-81
2021/12/03 19:21:39;;;;;;;16.33;7.10;;;;;;;;;;4923623;29;20302;-81
2021/12/03 19:24:08;;;;;;;19.27;7.00;;;;;;;;;;4923857;29;20262;-81
2021/12/03 19:26:36;;;;;;;14.50;7.03;;;;;;;;;;4924436;29;20290;-81
2021/12/03 19:29:05;;;;;;;12.40;6.07;;;;;;;;;;4918779;29;20267;-81
2021/12/03 19:31:33;;;;;;;14.83;7.10;;;;;;;;;;4921549;29;20381;-81
2021/12/03 19:34:00;;;;;;;12.77;6.73;;;;;;;;;;4921413;29;20283;-81
2021/12/03 19:36:27;;;;;;;13.27;7.17;;;;;;;;;;4925367;29;20211;-81
2021/12/03 19:38:55;;;;;;;11.40;5.80;;;;;;;;;;4926790;29;20577;-81
2021/12/03 19:41:30;;;;;;;13.27;6.63;;;;;;;;;;4929529;29;20227;-81
2021/12/03 19:44:00;;;;;;;14.40;6.67;;;;;;;;;;4925290;29;20218;-81
2021/12/03 19:46:30;;;;;;;9.67;5.33;;;;;;;;;;4925197;29;20258;-81
2021/12/03 19:49:05;;;;;;;18.93;7.37;;;;;;;;;;4924154;29;20214;-81
2021/12/03 19:51:35;;;;;;;18.43;7.87;;;;;;;;;;4927521;29;20242;-81
2021/12/03 19:54:04;;;;;;;20.10;8.00;;;;;;;;;;4927174;29;20559;-81
2021/12/03 19:56:34;;;;;;;16.20;8.17;;;;;;;;;;4925538;29;20232;-81
2021/12/03 19:59:01;;;;;;;11.67;6.27;;;;;;;;;;4928017;29;20698;-81
2021/12/03 20:01:29;;;;;;;15.97;7.00;;;;;;;;;;4923823;29;20662;-81
2021/12/03 20:03:56;;;;;;;17.63;8.00;;;;;;;;;;4922291;29;20215;-81
2021/12/03 20:06:24;;;;;;;18.43;7.50;;;;;;;;;;4923284;29;20671;-81
2021/12/03 20:08:53;;;;;;;14.70;6.33;;;;;;;;;;4924587;29;20223;-81
2021/12/03 20:11:25;;;;;;;12.10;6.20;;;;;;;;;;4927344;29;20314;-81
2021/12/03 20:13:57;;;;;;;15.17;6.30;;;;;;;;;;4927105;29;20246;-81
2021/12/03 20:16:28;;;;;;;12.07;6.93;;;;;;;;;;4924120;29;20231;-82
2021/12/03 20:19:00;;;;;;;15.10;6.57;;;;;;;;;;4932090;29;20226;-82
2021/12/03 20:21:28;;;;;;;13.67;6.90;;;;;;;;;;4874682;28;20239;-81
2021/12/03 20:24:06;;;;;;;15.03;8.00;;;;;;;;;;4925161;28;20238;-81
2021/12/03 20:26:46;;;;;;;13.30;6.13;;;;;;;;;;4927082;29;20561;-81
2021/12/03 20:29:18;;;;;;;11.87;6.97;;;;;;;;;;4925702;29;20203;-81
2021/12/03 20:31:48;;;;;;;13.37;7.20;;;;;;;;;;4932305;29;20234;-82
2021/12/03 20:34:35;;;;;;;19.17;9.43;;;;;;;;;;4937971;29;20203;-81
2021/12/03 20:37:06;;;;;;;13.63;6.70;;;;;;;;;;4941169;29;20203;-81
2021/12/03 20:39:35;;;;;;;11.30;6.33;;;;;;;;;;4949363;29;20223;-81
2021/12/03 20:42:20;;;;;;;9.53;5.37;;;;;;;;;;4945162;28;20238;-81
2021/12/03 20:45:05;;;;;;;10.13;5.77;;;;;;;;;;4939483;29;20219;-81
2021/12/03 20:53:31;;;;;;;9.77;5.90;;;;;;;;;;4917222;29;20222;-81
2021/12/03 21:09:49;;;;;;;16.90;7.23;;;;;;;;;;4920925;29;20631;-82
2021/12/03 21:12:19;;;;;;;9.37;4.37;;;;;;;;;;4933238;29;20226;-82
2021/12/03 21:14:59;;;;;;;11.83;5.77;;;;;;;;;;4934574;28;20271;-81
2021/12/03 21:17:43;;;;;;;10.40;5.53;;;;;;;;;;4934613;29;20286;-80
2021/12/03 21:20:16;;;;;;;11.07;5.50;;;;;;;;;;4924002;29;20207;-81
2021/12/03 21:22:49;;;;;;;13.07;5.10;;;;;;;;;;4928569;29;20673;-80
2021/12/03 21:25:20;;;;;;;11.37;4.93;;;;;;;;;;4917030;29;20262;-80
2021/12/03 21:27:54;;;;;;;10.70;5.27;;;;;;;;;;4925390;29;20250;-81
2021/12/03 21:30:30;;;;;;;9.43;4.90;;;;;;;;;;4917788;29;20234;-81
2021/12/03 21:33:14;;;;;;;12.13;4.67;;;;;;;;;;4920921;29;20291;-82
2021/12/03 21:38:49;;;;;;;10.10;5.07;;;;;;;;;;4925779;29;20215;-82
2021/12/03 21:44:01;;;;;;;9.17;5.07;;;;;;;;;;4926581;29;20231;-82
2021/12/03 21:46:30;;;;;;;9.63;4.87;;;;;;;;;;4928079;29;20211;-81
2021/12/03 21:48:58;;;;;;;8.17;5.10;;;;;;;;;;4927920;29;20657;-82
2021/12/03 21:51:26;;;;;;;11.83;5.23;;;;;;;;;;4925111;29;20230;-81
2021/12/03 21:53:54;;;;;;;7.33;4.40;;;;;;;;;;4928540;29;20729;-82
2021/12/03 21:56:23;;;;;;;8.73;4.80;;;;;;;;;;4940639;29;20238;-82
2021/12/03 21:58:51;;;;;;;8.40;4.50;;;;;;;;;;4936410;29;20223;-83
2021/12/03 22:01:18;;;;;;;8.83;4.07;;;;;;;;;;4935912;29;20235;-82
2021/12/03 22:03:46;;;;;;;10.43;4.47;;;;;;;;;;4935873;29;20740;-81
2021/12/03 22:06:15;;;;;;;10.17;4.97;;;;;;;;;;4936252;29;20203;-81
2021/12/03 22:08:42;;;;;;;9.13;5.17;;;;;;;;;;4943894;29;20208;-80